Garland, Texas
Current Conditions -  °F | °C
As of 1:47 PM on Saturday 27 Dec 2014 (Local Time) from KADS Reporting Station
Overcast Overcast  
Wind Chill: 30°   Ceiling: 1500
Heat Index: 39°   Visibility: 13mi
Dew Point: 34°   Wind: 17mph
Humidity: 81%   Direction: 340°NNW
Pressure: 30.19"   Gusts: 22mph
Location:  32.91°N, 96.64°W
Report Text: KADS 271947Z 34015G19KT 13SM OVC015 04/01 A3019
Loading
Personal Weather Stations






























Interactive Weather Map New forecast layout! Learn more

10-Day Weather Forecast

Advertisements
Track Severe Weather on mobile